createdAt,value
2023-04-23T00:00:25.193Z,23.1
2023-04-23T00:06:04.101Z,23.1
2023-04-23T00:11:55.739Z,23.1
2023-04-23T00:17:47.709Z,23.1
2023-04-23T00:23:38.607Z,23.1
2023-04-23T00:29:29.389Z,23.1
2023-04-23T00:35:21.310Z,23.1
2023-04-23T00:40:57.283Z,23
2023-04-23T00:46:48.743Z,23
2023-04-23T00:52:40.637Z,23
2023-04-23T00:58:31.895Z,23
2023-04-23T01:04:23.535Z,23
2023-04-23T01:10:15.460Z,23
2023-04-23T01:16:06.981Z,23
2023-04-23T01:21:42.518Z,23
2023-04-23T01:27:34.071Z,23
2023-04-23T01:33:25.827Z,22.9
2023-04-23T01:39:17.223Z,22.9
2023-04-23T01:45:08.958Z,22.9
2023-04-23T01:51:03.337Z,22.9
2023-04-23T01:56:53.724Z,22.9
2023-04-23T02:02:29.929Z,22.9
2023-04-23T02:08:23.073Z,22.9
2023-04-23T02:14:14.286Z,22.9
2023-04-23T02:20:06.859Z,22.9
2023-04-23T02:25:58.999Z,22.9
2023-04-23T02:31:50.341Z,22.9
2023-04-23T02:37:42.287Z,22.9
2023-04-23T02:43:33.527Z,22.9
2023-04-23T02:49:24.962Z,22.9
2023-04-23T02:55:16.409Z,22.9
2023-04-23T03:01:08.372Z,22.8
2023-04-23T03:07:01.347Z,22.8
2023-04-23T03:12:37.153Z,22.8
2023-04-23T03:18:29.406Z,22.8
2023-04-23T03:24:20.355Z,22.8
2023-04-23T03:30:13.447Z,22.8
2023-04-23T03:36:05.819Z,22.8
2023-04-23T03:41:56.751Z,22.8
2023-04-23T03:47:33.305Z,22.8
2023-04-23T03:53:09.807Z,22.8
2023-04-23T03:58:45.080Z,22.8
2023-04-23T04:04:38.721Z,22.8
2023-04-23T04:10:31.673Z,22.8
2023-04-23T04:16:23.049Z,22.8
2023-04-23T04:22:16.529Z,22.8
2023-04-23T04:28:07.540Z,22.8
2023-04-23T04:33:58.827Z,22.8
2023-04-23T04:39:50.722Z,22.7
2023-04-23T04:45:42.363Z,22.7
2023-04-23T04:51:34.257Z,22.7
2023-04-23T04:57:25.436Z,22.7
2023-04-23T05:03:02.307Z,22.7
2023-04-23T05:08:54.408Z,22.7
2023-04-23T05:14:47.965Z,22.7
2023-04-23T05:20:39.942Z,22.7
2023-04-23T05:26:31.449Z,22.6
2023-04-23T05:32:23.405Z,22.7
2023-04-23T05:38:21.178Z,22.6
2023-04-23T05:44:14.148Z,22.6
2023-04-23T05:50:06.796Z,22.6
2023-04-23T05:56:00.109Z,22.6
2023-04-23T06:01:51.129Z,22.6
2023-04-23T06:07:32.570Z,22.6
2023-04-23T06:13:25.954Z,22.6
2023-04-23T06:19:19.089Z,22.6
2023-04-23T06:25:10.583Z,22.6
2023-04-23T06:31:02.132Z,22.6
2023-04-23T06:37:04.625Z,22.6
2023-04-23T06:42:56.440Z,22.6
2023-04-23T06:48:48.465Z,23
2023-04-23T06:54:40.365Z,23.1
2023-04-23T07:00:33.302Z,23.1
2023-04-23T07:06:26.651Z,23.6
2023-04-23T07:12:17.558Z,24.3
2023-04-23T07:18:09.625Z,24.8
2023-04-23T07:24:00.598Z,25.4
2023-04-23T07:29:51.331Z,25.9
2023-04-23T07:35:44.039Z,26.4
2023-04-23T07:41:37.751Z,27.1
2023-04-23T07:47:29.247Z,27.7
2023-04-23T07:53:06.353Z,28.3
2023-04-23T07:59:00.392Z,28.9
2023-04-23T08:04:54.444Z,29.5
2023-04-23T08:10:46.745Z,30.1
2023-04-23T08:16:39.038Z,30.8
2023-04-23T08:22:45.385Z,31.5
2023-04-23T08:28:21.561Z,32.3
2023-04-23T08:34:29.922Z,32.9
2023-04-23T08:40:17.635Z,33.6
2023-04-23T08:45:55.095Z,34.3
2023-04-23T08:51:30.439Z,35
2023-04-23T08:57:06.916Z,35.8
2023-04-23T09:02:59.201Z,36.5
2023-04-23T09:08:37.347Z,37.2
2023-04-23T09:14:30.610Z,38
2023-04-23T09:20:21.662Z,38.8
2023-04-23T09:25:57.976Z,39.3
2023-04-23T09:31:33.898Z,39.4
2023-04-23T09:37:26.333Z,40
2023-04-23T09:43:02.802Z,40.9
2023-04-23T09:48:39.326Z,41.7
2023-04-23T09:54:31.462Z,42.4
2023-04-23T10:00:46.758Z,43.3
2023-04-23T10:07:37.008Z,44
2023-04-23T10:14:17.717Z,45
2023-04-23T10:20:14.664Z,45.9
2023-04-23T10:26:32.269Z,46.6
2023-04-23T10:32:40.602Z,47.4
2023-04-23T10:39:13.951Z,48.2
2023-04-23T10:45:13.261Z,48.9
2023-04-23T10:50:58.281Z,49.6
2023-04-23T10:57:33.344Z,50.4
2023-04-23T11:03:25.385Z,51
2023-04-23T11:09:27.867Z,51.6
2023-04-23T11:15:21.978Z,52.3
2023-04-23T11:21:00.393Z,52.8
2023-04-23T11:26:51.684Z,53.4
2023-04-23T11:32:52.817Z,53.9
2023-04-23T11:38:44.973Z,54.5
2023-04-23T11:44:21.152Z,55
2023-04-23T11:49:27.521Z,55.4
2023-04-23T11:55:20.055Z,55.9
2023-04-23T12:01:13.048Z,56.4
2023-04-23T12:07:12.920Z,56.8
2023-04-23T12:13:06.542Z,57.3
2023-04-23T12:18:44.892Z,57.6
2023-04-23T12:24:36.558Z,58
2023-04-23T12:30:28.698Z,58.4
2023-04-23T12:36:20.974Z,58.3
2023-04-23T12:42:12.256Z,58.2
2023-04-23T12:48:04.063Z,58.1
2023-04-23T12:53:55.685Z,58
2023-04-23T12:59:47.710Z,57.9
2023-04-23T13:05:42.482Z,57.9
2023-04-23T13:17:10.825Z,57.7
2023-04-23T13:23:05.209Z,57.6
2023-04-23T13:28:57.070Z,57.5
2023-04-23T13:34:17.914Z,57.4
2023-04-23T13:40:11.081Z,57.4
2023-04-23T13:46:15.507Z,57.3
2023-04-23T13:52:23.758Z,57.2
2023-04-23T13:58:00.430Z,57.1
2023-04-23T14:04:05.859Z,57
2023-04-23T14:09:43.037Z,56.9
2023-04-23T14:15:19.464Z,56.9
2023-04-23T14:20:56.960Z,56.8
2023-04-23T14:27:05.746Z,56.6
2023-04-23T14:32:57.888Z,56.6
2023-04-23T14:39:04.559Z,56.4
2023-04-23T14:45:07.937Z,56.4
2023-04-23T14:50:44.331Z,56.3
2023-04-23T14:56:35.726Z,56.2
2023-04-23T15:02:29.820Z,56.1
2023-04-23T15:08:22.628Z,56.1
2023-04-23T15:14:14.420Z,55.9
2023-04-23T15:20:17.776Z,55.9
2023-04-23T15:26:09.520Z,55.8
2023-04-23T15:31:46.111Z,55.7
2023-04-23T15:37:39.476Z,55.6
2023-04-23T15:43:30.457Z,55.6
2023-04-23T15:49:22.316Z,55.4
2023-04-23T15:55:14.382Z,55.4
2023-04-23T16:01:06.753Z,55.3
2023-04-23T16:07:18.420Z,55.2
2023-04-23T16:13:10.782Z,55.1
2023-04-23T16:19:03.114Z,55
2023-04-23T16:24:55.577Z,54.9
2023-04-23T16:31:07.430Z,54.9
2023-04-23T16:36:59.682Z,54.8
2023-04-23T16:42:50.877Z,54.7
2023-04-23T16:48:44.530Z,54.6
2023-04-23T16:54:37.500Z,54.6
2023-04-23T17:00:30.718Z,54.5
2023-04-23T17:06:25.549Z,54.4
2023-04-23T17:12:18.987Z,54.3
2023-04-23T17:17:56.619Z,54.3
2023-04-23T17:23:33.530Z,54.2
2023-04-23T17:29:26.427Z,54.1
2023-04-23T17:35:27.105Z,54.1
2023-04-23T17:41:20.137Z,53.9
2023-04-23T17:47:13.418Z,53.9
2023-04-23T17:53:09.251Z,53.8
2023-04-23T17:58:52.389Z,53.8
2023-04-23T18:04:50.216Z,53.6
2023-04-23T18:10:29.167Z,53.6
2023-04-23T18:16:07.142Z,53.5
2023-04-23T18:21:47.192Z,53.4
2023-04-23T18:27:09.825Z,53.4
2023-04-23T18:33:00.495Z,53.3
2023-04-23T18:38:39.241Z,53.3
2023-04-23T18:45:10.630Z,53.2
2023-04-23T18:50:49.359Z,53
2023-04-23T18:56:30.531Z,52.8
2023-04-23T19:02:34.310Z,52.7
2023-04-23T19:08:44.553Z,52.5
2023-04-23T19:20:00.525Z,52.3
2023-04-23T19:25:38.533Z,52.2
2023-04-23T19:31:32.113Z,52.1
2023-04-23T19:42:48.199Z,51.9
2023-04-23T19:48:41.988Z,51.8
2023-04-23T19:54:04.112Z,51.7
2023-04-23T19:59:59.795Z,51.6
2023-04-23T20:05:38.628Z,51.6
2023-04-23T20:11:15.687Z,51.5
2023-04-23T20:16:55.689Z,51.4
2023-04-23T20:22:18.770Z,51.4
2023-04-23T20:27:56.183Z,51.3
2023-04-23T20:33:33.295Z,51.3
2023-04-23T20:39:10.062Z,51.2
2023-04-23T20:45:01.992Z,51.1
2023-04-23T20:50:38.326Z,51.1
2023-04-23T20:56:14.119Z,51
2023-04-23T21:02:06.034Z,50.9
2023-04-23T21:07:59.702Z,50.9
2023-04-23T21:13:51.231Z,50.9
2023-04-23T21:19:43.451Z,50.8
2023-04-23T21:25:34.518Z,50.8
2023-04-23T21:31:28.230Z,50.7
2023-04-23T21:37:04.651Z,50.7
2023-04-23T21:42:56.123Z,50.6
2023-04-23T21:48:48.420Z,50.5
2023-04-23T21:54:40.193Z,50.5
2023-04-23T22:00:48.070Z,50.4
2023-04-23T22:07:00.362Z,50.4
2023-04-23T22:13:06.321Z,50.3
2023-04-23T22:19:10.899Z,50.3
2023-04-23T22:25:01.967Z,50.2
2023-04-23T22:30:37.238Z,50.2
2023-04-23T22:36:29.526Z,50.1
2023-04-23T22:42:22.898Z,50.1
2023-04-23T22:47:58.788Z,50
2023-04-23T22:53:36.748Z,49.9
2023-04-23T22:58:57.241Z,49.9
2023-04-23T23:04:34.082Z,49.9
2023-04-23T23:09:54.628Z,49.8
2023-04-23T23:15:45.878Z,49.8
2023-04-23T23:21:22.074Z,49.8
2023-04-23T23:27:13.188Z,49.7
2023-04-23T23:33:04.963Z,49.6
2023-04-23T23:38:55.917Z,49.6
2023-04-23T23:44:49.813Z,49.5
2023-04-23T23:50:26.813Z,49.4
2023-04-23T23:56:02.944Z,49.4
